Time;durP1;ratioP1;P1;durP2;ratioP2;P2;SDS_P1;SDS_P2;PMS_P1;PMS_P2;Temp;Humidity;BMP_temperature;BMP_pressure;BME280_temperature;BME280_humidity;BME280_pressure;Samples;Min_cycle;Max_cycle;Signal;HPM_P1;HPM_P2
2023/02/12 00:02:24;;;;;;;26.13;23.50;;;6.80;84.70;;;;;;5025651;28;20212;-88
2023/02/12 00:04:49;;;;;;;28.00;25.10;;;6.80;85.10;;;;;;5014642;28;20209;-88
2023/02/12 00:07:15;;;;;;;26.87;24.10;;;6.70;86.10;;;;;;5016348;28;20185;-90
2023/02/12 00:09:41;;;;;;;24.93;22.07;;;6.80;84.80;;;;;;5024081;28;20216;-89
2023/02/12 00:12:06;;;;;;;27.37;24.40;;;6.80;83.50;;;;;;5034437;28;20256;-89
2023/02/12 00:14:33;;;;;;;24.53;22.23;;;6.80;84.10;;;;;;5033890;28;20398;-87
2023/02/12 00:16:59;;;;;;;24.73;22.13;;;6.90;83.90;;;;;;5032993;28;20282;-87
2023/02/12 00:19:25;;;;;;;26.67;23.47;;;6.80;83.60;;;;;;5034811;28;20188;-88
2023/02/12 00:21:51;;;;;;;25.57;22.97;;;6.80;86.00;;;;;;5035745;28;20260;-88
2023/02/12 00:24:16;;;;;;;24.00;21.63;;;6.80;86.00;;;;;;5036612;28;20185;-90
2023/02/12 00:26:42;;;;;;;23.23;20.97;;;6.80;85.90;;;;;;5040982;28;20254;-88
2023/02/12 00:29:09;;;;;;;22.47;20.30;;;6.80;85.30;;;;;;5042730;28;20181;-88
2023/02/12 00:31:34;;;;;;;24.03;21.53;;;6.90;84.90;;;;;;5046356;28;20200;-88
2023/02/12 00:34:00;;;;;;;25.33;22.93;;;6.70;85.40;;;;;;5056905;28;20177;-88
2023/02/12 00:36:28;;;;;;;24.80;22.40;;;6.70;86.80;;;;;;5058137;28;20223;-91
2023/02/12 00:38:55;;;;;;;23.23;21.03;;;6.80;87.00;;;;;;5057706;28;20173;-90
2023/02/12 00:41:21;;;;;;;24.53;22.17;;;6.70;86.70;;;;;;5043876;28;20659;-89
2023/02/12 00:43:47;;;;;;;26.90;24.17;;;6.70;84.90;;;;;;5040888;28;20323;-89
2023/02/12 00:46:14;;;;;;;24.23;21.93;;;6.70;87.10;;;;;;5039197;28;20709;-89
2023/02/12 00:48:40;;;;;;;23.03;20.67;;;6.70;85.60;;;;;;5040088;28;20244;-89
2023/02/12 00:51:06;;;;;;;24.33;21.83;;;6.70;85.30;;;;;;5039363;28;20319;-87
2023/02/12 00:53:33;;;;;;;24.00;21.57;;;6.70;85.80;;;;;;5019932;28;20276;-89
2023/02/12 00:55:59;;;;;;;23.63;21.17;;;6.70;85.10;;;;;;5038889;28;20246;-89
2023/02/12 00:58:24;;;;;;;23.43;21.00;;;6.70;86.50;;;;;;5040201;28;20598;-88
2023/02/12 01:00:50;;;;;;;26.97;23.37;;;6.70;86.10;;;;;;5038154;28;20195;-88
2023/02/12 01:03:16;;;;;;;29.00;24.13;;;6.70;87.30;;;;;;5037824;28;20196;-89
2023/02/12 01:05:42;;;;;;;24.47;21.97;;;6.70;87.50;;;;;;5036860;28;20201;-88
2023/02/12 01:08:11;;;;;;;28.87;23.60;;;6.70;87.60;;;;;;5039030;28;20200;-89
2023/02/12 01:10:37;;;;;;;24.57;21.67;;;6.70;86.60;;;;;;5036394;28;20706;-88
2023/02/12 01:13:02;;;;;;;25.63;23.20;;;6.70;86.50;;;;;;5037691;28;20239;-88
2023/02/12 01:15:29;;;;;;;23.63;21.23;;;6.80;86.50;;;;;;5037854;28;20259;-90
2023/02/12 01:17:55;;;;;;;22.37;20.17;;;6.80;86.20;;;;;;5038503;28;20181;-87
2023/02/12 01:20:23;;;;;;;25.00;22.60;;;6.70;87.40;;;;;;5039270;28;20567;-87
2023/02/12 01:22:49;;;;;;;23.20;20.90;;;6.70;88.10;;;;;;5049608;28;20240;-90
2023/02/12 01:25:14;;;;;;;23.80;21.50;;;6.60;88.60;;;;;;5046577;28;20232;-90
2023/02/12 01:27:40;;;;;;;22.23;19.93;;;6.60;88.90;;;;;;5039509;28;20319;-89
2023/02/12 01:30:10;;;;;;;22.23;20.03;;;6.60;89.50;;;;;;5039052;28;20208;-87
2023/02/12 01:32:36;;;;;;;21.63;19.33;;;6.60;89.60;;;;;;5039406;28;20173;-88
2023/02/12 01:35:03;;;;;;;22.70;20.13;;;6.60;90.10;;;;;;5039738;28;20223;-89
2023/02/12 01:37:28;;;;;;;22.27;19.90;;;6.60;90.40;;;;;;5036274;28;20189;-87
2023/02/12 01:39:54;;;;;;;20.87;18.70;;;6.60;90.30;;;;;;5032625;28;20196;-89
2023/02/12 01:42:20;;;;;;;21.20;19.10;;;6.50;90.10;;;;;;5038060;28;20189;-88
2023/02/12 01:45:11;;;;;;;19.60;17.70;;;6.50;89.80;;;;;;5038746;28;20215;-88
2023/02/12 01:47:38;;;;;;;23.43;21.13;;;6.50;89.50;;;;;;5038344;28;20196;-89
2023/02/12 01:50:06;;;;;;;22.17;19.97;;;6.40;94.90;;;;;;5039474;28;20220;-88
2023/02/12 01:52:35;;;;;;;21.13;18.93;;;6.40;95.20;;;;;;5027825;28;20699;-88
2023/02/12 01:55:06;;;;;;;21.07;18.83;;;6.40;95.40;;;;;;5030679;28;20240;-88
2023/02/12 01:57:37;;;;;;;19.67;17.83;;;6.50;93.50;;;;;;5036841;28;20264;-88
2023/02/12 02:00:10;;;;;;;21.50;19.60;;;6.50;91.90;;;;;;5038629;28;20165;-89
2023/02/12 02:02:38;;;;;;;20.57;18.67;;;6.50;92.20;;;;;;5040879;28;20185;-88
2023/02/12 02:05:05;;;;;;;20.77;18.90;;;6.60;92.20;;;;;;5040116;28;20713;-90
2023/02/12 02:07:31;;;;;;;18.77;16.87;;;6.60;92.10;;;;;;5038132;28;20177;-89
2023/02/12 02:09:57;;;;;;;19.80;17.90;;;6.50;91.80;;;;;;5037344;28;20600;-89
2023/02/12 02:15:10;;;;;;;20.10;18.20;;;6.60;91.80;;;;;;5037506;28;20662;-89
2023/02/12 02:17:48;;;;;;;20.77;18.87;;;6.60;91.80;;;;;;5036653;28;20324;-87
2023/02/12 02:20:25;;;;;;;18.50;16.63;;;6.60;92.30;;;;;;5037183;28;20252;-88
2023/02/12 02:23:35;;;;;;;19.93;18.03;;;6.50;92.00;;;;;;5038773;28;20168;-87
2023/02/12 02:26:26;;;;;;;19.20;17.47;;;6.40;96.00;;;;;;5038136;28;20567;-87
2023/02/12 02:29:19;;;;;;;17.97;16.27;;;6.30;95.80;;;;;;5037806;28;20180;-88
2023/02/12 02:32:02;;;;;;;20.37;17.63;;;6.40;93.70;;;;;;5038075;28;20184;-88
2023/02/12 02:34:33;;;;;;;19.10;17.33;;;6.50;93.10;;;;;;5027576;28;20198;-89
2023/02/12 02:37:31;;;;;;;19.03;17.03;;;6.40;94.00;;;;;;5037893;28;20153;-88
2023/02/12 02:40:13;;;;;;;17.27;15.77;;;6.40;93.10;;;;;;5023898;28;20603;-89
2023/02/12 02:42:58;;;;;;;16.87;15.27;;;6.50;92.30;;;;;;5037223;28;20200;-86
2023/02/12 02:45:42;;;;;;;17.40;15.80;;;6.50;91.50;;;;;;5038510;28;20217;-89
2023/02/12 02:48:14;;;;;;;17.80;16.07;;;6.40;94.40;;;;;;5037719;28;20188;-88
2023/02/12 02:50:48;;;;;;;18.43;15.73;;;6.40;92.90;;;;;;5037860;28;20157;-88
2023/02/12 02:53:38;;;;;;;17.27;15.63;;;6.50;92.00;;;;;;5020276;28;20217;-90
2023/02/12 02:56:07;;;;;;;18.30;16.47;;;6.50;92.40;;;;;;5028547;28;20276;-89
2023/02/12 02:58:43;;;;;;;16.87;15.23;;;6.50;93.10;;;;;;5038309;28;20185;-90
2023/02/12 03:01:19;;;;;;;17.00;15.40;;;6.50;93.00;;;;;;5037185;28;20175;-89
2023/02/12 03:03:53;;;;;;;17.33;15.63;;;6.50;92.70;;;;;;5017022;28;20195;-90
2023/02/12 03:06:33;;;;;;;19.90;18.00;;;6.50;93.40;;;;;;5024424;28;20276;-89
2023/02/12 03:09:25;;;;;;;18.83;16.90;;;6.50;93.00;;;;;;5035234;28;20181;-88
2023/02/12 03:11:56;;;;;;;17.47;15.77;;;6.50;93.10;;;;;;5035158;28;20216;-89
2023/02/12 03:14:27;;;;;;;16.63;14.97;;;6.40;92.70;;;;;;5036577;28;20671;-91
2023/02/12 03:16:57;;;;;;;17.57;15.87;;;6.40;92.20;;;;;;5035530;28;20185;-89
2023/02/12 03:19:29;;;;;;;17.87;16.27;;;6.50;92.50;;;;;;5036263;28;20239;-90
2023/02/12 03:22:05;;;;;;;18.13;16.27;;;6.40;92.90;;;;;;5036330;28;20291;-90
2023/02/12 03:25:13;;;;;;;18.43;16.53;;;6.40;92.90;;;;;;5036293;28;20188;-87
2023/02/12 03:28:02;;;;;;;16.37;14.77;;;6.50;92.40;;;;;;4956332;29;20460;-87
2023/02/12 03:30:52;;;;;;;19.17;17.17;;;6.50;91.80;;;;;;5019435;28;20671;-88
2023/02/12 03:33:42;;;;;;;22.20;20.00;;;6.50;91.10;;;;;;5038052;28;20208;-89
2023/02/12 03:36:36;;;;;;;23.77;21.27;;;6.50;91.30;;;;;;5043624;28;20191;-91
2023/02/12 03:39:31;;;;;;;23.63;21.23;;;6.60;91.60;;;;;;5057013;28;20203;-91
2023/02/12 03:42:12;;;;;;;23.37;21.07;;;6.60;92.20;;;;;;5047425;28;20201;-92
2023/02/12 03:44:47;;;;;;;22.87;20.40;;;6.60;92.30;;;;;;5052253;28;20192;-88
2023/02/12 03:47:39;;;;;;;23.73;21.30;;;6.60;92.50;;;;;;5037917;28;20181;-89
2023/02/12 03:50:17;;;;;;;24.30;21.97;;;6.60;92.80;;;;;;5035961;28;20628;-89
2023/02/12 03:52:45;;;;;;;23.60;21.07;;;6.50;92.80;;;;;;5022402;28;20185;-89
2023/02/12 03:55:11;;;;;;;25.47;22.67;;;6.40;93.20;;;;;;5027996;28;20239;-87
2023/02/12 03:57:42;;;;;;;24.93;22.60;;;6.50;93.40;;;;;;5035632;28;20189;-90
2023/02/12 04:00:18;;;;;;;25.93;23.20;;;6.50;92.50;;;;;;5034336;28;20173;-88
2023/02/12 04:02:44;;;;;;;23.23;20.93;;;6.50;92.70;;;;;;5021756;28;20177;-89
2023/02/12 04:05:20;;;;;;;24.27;21.90;;;6.50;92.40;;;;;;5015535;28;20587;-90
2023/02/12 04:07:46;;;;;;;25.33;22.63;;;6.50;92.70;;;;;;5035056;28;20267;-90
2023/02/12 04:10:12;;;;;;;26.37;23.67;;;6.40;92.90;;;;;;5036305;28;20179;-88
2023/02/12 04:13:10;;;;;;;26.23;23.73;;;6.50;92.90;;;;;;5035945;28;20181;-89
2023/02/12 04:15:45;;;;;;;26.90;22.37;;;6.50;92.30;;;;;;5033357;28;20224;-88
2023/02/12 04:18:19;;;;;;;25.90;23.30;;;6.50;92.90;;;;;;5037043;28;20211;-88
2023/02/12 04:21:26;;;;;;;25.23;22.73;;;6.40;93.00;;;;;;5036179;28;20165;-91
2023/02/12 04:24:24;;;;;;;26.17;23.47;;;6.50;92.40;;;;;;5037307;28;20169;-89
2023/02/12 04:27:08;;;;;;;25.70;23.10;;;6.40;92.50;;;;;;5034224;28;20251;-89
2023/02/12 04:30:04;;;;;;;26.30;23.70;;;6.40;92.70;;;;;;5035450;28;20239;-89
2023/02/12 04:32:42;;;;;;;25.87;23.17;;;6.40;92.30;;;;;;5036630;28;20247;-89
2023/02/12 04:35:08;;;;;;;25.93;23.20;;;6.40;92.00;;;;;;5036571;28;20212;-90
2023/02/12 04:37:49;;;;;;;24.97;22.43;;;6.30;92.90;;;;;;5035155;28;20242;-89
2023/02/12 04:40:18;;;;;;;26.97;24.33;;;6.30;92.50;;;;;;5036780;28;20169;-88
2023/02/12 04:42:48;;;;;;;27.33;24.63;;;6.50;92.00;;;;;;5037206;28;20188;-91
2023/02/12 04:45:20;;;;;;;28.40;25.37;;;6.50;91.70;;;;;;5036027;28;20247;-89
2023/02/12 04:47:46;;;;;;;26.37;23.63;;;6.40;91.70;;;;;;5034526;28;20185;-88
2023/02/12 04:50:12;;;;;;;29.13;25.23;;;6.50;91.70;;;;;;5034807;28;20903;-90
2023/02/12 04:52:38;;;;;;;29.03;25.93;;;6.50;91.90;;;;;;5021394;28;20547;-90
2023/02/12 04:55:04;;;;;;;28.93;25.97;;;6.50;91.30;;;;;;5027192;28;20271;-88
2023/02/12 04:57:29;;;;;;;28.10;25.30;;;6.40;91.90;;;;;;5032436;28;20189;-89
2023/02/12 04:59:55;;;;;;;28.07;25.43;;;6.40;91.70;;;;;;5035489;28;20671;-88
2023/02/12 05:02:21;;;;;;;28.70;25.80;;;6.40;91.90;;;;;;5027268;28;20186;-89
2023/02/12 05:04:49;;;;;;;28.90;25.80;;;6.40;91.90;;;;;;5015974;28;20652;-88
2023/02/12 05:07:14;;;;;;;29.73;26.70;;;6.50;91.70;;;;;;5033492;28;20180;-88
2023/02/12 05:09:40;;;;;;;32.37;28.87;;;6.40;92.30;;;;;;5041950;28;20409;-87
2023/02/12 05:12:06;;;;;;;31.97;28.57;;;6.50;92.20;;;;;;5037148;28;20197;-89
2023/02/12 05:14:32;;;;;;;34.43;27.73;;;6.50;92.10;;;;;;5040186;28;20209;-89
2023/02/12 05:16:57;;;;;;;39.77;30.77;;;6.40;92.80;;;;;;5040855;28;20193;-89
2023/02/12 05:19:23;;;;;;;31.33;27.67;;;6.50;92.80;;;;;;5043789;28;20674;-91
2023/02/12 05:21:51;;;;;;;31.17;27.77;;;6.60;92.30;;;;;;5037528;28;20188;-89
2023/02/12 05:24:17;;;;;;;30.30;26.87;;;6.60;92.60;;;;;;5031712;28;20567;-90
2023/02/12 05:26:42;;;;;;;25.23;22.63;;;6.60;92.80;;;;;;5029263;28;20209;-89
2023/02/12 05:29:08;;;;;;;28.70;25.73;;;6.60;93.10;;;;;;5040706;28;20196;-88
2023/02/12 05:31:34;;;;;;;27.93;25.17;;;6.50;93.50;;;;;;5041851;28;20193;-90
2023/02/12 05:34:00;;;;;;;27.23;24.53;;;6.50;93.80;;;;;;5055980;28;20204;-91
2023/02/12 05:36:26;;;;;;;27.63;24.73;;;6.50;93.70;;;;;;5057888;28;20204;-90
2023/02/12 05:38:57;;;;;;;26.63;23.83;;;6.50;94.00;;;;;;5057525;28;20253;-89
2023/02/12 05:41:23;;;;;;;30.27;26.80;;;6.50;93.90;;;;;;5040903;28;20192;-89
2023/02/12 05:43:50;;;;;;;27.17;24.47;;;6.50;94.00;;;;;;5039617;28;20181;-89
2023/02/12 05:46:17;;;;;;;26.40;23.47;;;6.50;94.60;;;;;;5039102;28;20204;-88
2023/02/12 05:48:43;;;;;;;26.43;23.70;;;6.40;94.20;;;;;;5038920;28;20316;-88
2023/02/12 05:51:15;;;;;;;25.60;23.00;;;6.30;94.20;;;;;;5048382;28;20169;-89
2023/02/12 05:53:41;;;;;;;24.90;22.20;;;6.30;93.90;;;;;;5046215;28;20208;-88
2023/02/12 05:56:09;;;;;;;27.77;25.00;;;6.30;94.10;;;;;;5037615;28;20207;-88
2023/02/12 05:58:35;;;;;;;32.90;27.47;;;6.50;94.40;;;;;;5037159;28;20201;-90
2023/02/12 06:01:00;;;;;;;30.57;26.47;;;6.60;94.20;;;;;;5037302;28;20655;-87
2023/02/12 06:03:26;;;;;;;28.97;24.83;;;6.60;93.70;;;;;;5037600;28;20195;-88
2023/02/12 06:05:52;;;;;;;26.10;23.40;;;6.60;93.80;;;;;;5036128;28;20212;-87
2023/02/12 06:08:17;;;;;;;26.83;24.03;;;6.40;95.10;;;;;;5035277;28;20647;-88
2023/02/12 06:10:43;;;;;;;27.40;24.53;;;6.40;94.40;;;;;;5036883;28;20185;-90
2023/02/12 06:13:09;;;;;;;29.00;24.53;;;6.50;94.90;;;;;;5014823;28;20212;-87
2023/02/12 06:15:38;;;;;;;27.83;24.97;;;6.60;94.00;;;;;;5014206;28;20714;-88
2023/02/12 06:18:03;;;;;;;27.57;24.70;;;6.50;94.00;;;;;;5027170;28;20185;-89
2023/02/12 06:20:29;;;;;;;27.90;24.97;;;6.50;94.20;;;;;;5028112;28;20186;-89
2023/02/12 06:22:55;;;;;;;27.40;24.57;;;6.50;94.30;;;;;;5036803;28;20181;-87
2023/02/12 06:25:20;;;;;;;29.40;25.80;;;6.60;93.70;;;;;;5038611;28;20228;-88
2023/02/12 06:27:46;;;;;;;27.53;24.47;;;6.50;94.10;;;;;;5038188;28;20184;-89
2023/02/12 06:30:12;;;;;;;27.00;24.30;;;6.40;94.30;;;;;;5037693;28;20185;-89
2023/02/12 06:32:38;;;;;;;57.07;46.17;;;6.40;94.30;;;;;;5038806;28;20195;-88
2023/02/12 06:35:05;;;;;;;55.10;43.90;;;6.40;93.50;;;;;;5037276;28;20209;-88
2023/02/12 06:37:31;;;;;;;41.60;36.60;;;6.50;94.40;;;;;;5035909;28;20185;-90
2023/02/12 06:39:57;;;;;;;30.43;27.20;;;6.60;94.00;;;;;;5028929;28;20268;-89
2023/02/12 06:42:22;;;;;;;27.27;24.47;;;6.60;94.50;;;;;;5034925;28;20212;-88
2023/02/12 06:44:48;;;;;;;26.83;24.13;;;6.50;95.00;;;;;;5034687;28;20703;-89
2023/02/12 06:47:14;;;;;;;30.60;27.40;;;6.50;95.40;;;;;;5035611;28;20230;-88
2023/02/12 06:49:39;;;;;;;32.47;25.63;;;6.40;95.40;;;;;;5034358;28;20177;-89
2023/02/12 06:52:05;;;;;;;29.50;26.40;;;6.30;95.30;;;;;;5026963;28;20879;-89
2023/02/12 06:54:30;;;;;;;28.70;25.73;;;6.30;96.30;;;;;;5015773;28;20254;-90
2023/02/12 06:56:56;;;;;;;29.57;26.40;;;6.40;95.60;;;;;;5016603;28;20174;-87
2023/02/12 06:59:22;;;;;;;30.73;26.77;;;6.50;95.10;;;;;;5018325;28;20176;-88
2023/02/12 07:01:47;;;;;;;29.27;25.73;;;6.50;95.50;;;;;;5026108;28;20188;-87
2023/02/12 07:04:13;;;;;;;30.20;26.10;;;6.50;96.10;;;;;;5036155;28;20635;-90
2023/02/12 07:06:39;;;;;;;28.77;25.97;;;6.50;96.20;;;;;;5036488;28;20231;-88
2023/02/12 07:09:05;;;;;;;28.03;24.13;;;6.40;96.30;;;;;;5035925;28;20248;-87
2023/02/12 07:11:34;;;;;;;28.40;25.40;;;6.40;96.60;;;;;;5036756;28;20183;-88
2023/02/12 07:13:59;;;;;;;29.60;25.23;;;6.40;96.70;;;;;;5035360;28;20579;-89
2023/02/12 07:16:25;;;;;;;32.57;29.03;;;6.40;96.80;;;;;;5028081;28;20224;-89
2023/02/12 07:18:51;;;;;;;41.23;31.27;;;6.40;96.90;;;;;;5037641;28;20176;-87
2023/02/12 07:21:17;;;;;;;32.67;28.10;;;6.40;97.20;;;;;;5052604;28;20207;-88
2023/02/12 07:23:48;;;;;;;32.13;28.70;;;6.40;97.10;;;;;;5051255;28;20197;-87
2023/02/12 07:26:14;;;;;;;37.20;31.03;;;6.30;97.60;;;;;;5043383;28;20710;-87
2023/02/12 07:28:40;;;;;;;41.27;35.23;;;6.30;97.60;;;;;;5042965;28;20184;-88
2023/02/12 07:31:07;;;;;;;48.33;38.53;;;6.30;97.50;;;;;;5052174;28;20204;-88
2023/02/12 07:33:34;;;;;;;50.53;45.07;;;6.40;97.40;;;;;;5050282;28;20212;-86
2023/02/12 07:36:00;;;;;;;36.10;31.57;;;6.40;97.30;;;;;;5039594;28;20284;-88
2023/02/12 07:38:27;;;;;;;35.57;31.97;;;6.40;97.40;;;;;;5046172;28;20173;-89
2023/02/12 07:40:52;;;;;;;34.90;31.20;;;6.50;96.80;;;;;;5032617;28;20192;-91
2023/02/12 07:43:18;;;;;;;40.57;36.17;;;6.50;96.50;;;;;;5033268;28;20185;-89
2023/02/12 07:45:44;;;;;;;35.27;30.93;;;6.60;96.10;;;;;;5033402;28;20232;-92
2023/02/12 07:48:09;;;;;;;34.93;30.50;;;6.60;95.70;;;;;;5034432;28;20161;-89
2023/02/12 07:50:35;;;;;;;33.70;30.33;;;6.70;95.50;;;;;;5052346;28;20180;-92
2023/02/12 07:53:01;;;;;;;30.10;26.83;;;6.70;95.50;;;;;;5052139;28;20333;-93
2023/02/12 07:55:26;;;;;;;31.43;28.30;;;6.70;95.40;;;;;;5056168;28;20192;-89
2023/02/12 07:57:52;;;;;;;30.13;27.07;;;6.70;96.40;;;;;;5056805;28;20215;-92
2023/02/12 08:00:18;;;;;;;28.20;25.20;;;6.70;95.50;;;;;;5050388;28;20235;-88
2023/02/12 08:02:49;;;;;;;32.53;27.33;;;6.70;95.40;;;;;;5037505;28;20188;-91
2023/02/12 08:05:16;;;;;;;29.97;26.83;;;6.70;94.60;;;;;;5051161;28;20192;-89
2023/02/12 08:07:42;;;;;;;29.93;26.90;;;6.70;94.60;;;;;;5039853;28;20573;-89
2023/02/12 08:10:08;;;;;;;29.53;25.90;;;6.80;93.90;;;;;;5037341;28;20199;-88
2023/02/12 08:12:34;;;;;;;29.27;26.27;;;6.80;94.20;;;;;;5036184;28;20219;-88
2023/02/12 08:14:59;;;;;;;28.93;25.87;;;6.70;94.10;;;;;;5026119;28;20297;-89
2023/02/12 08:17:25;;;;;;;30.07;26.97;;;6.80;92.90;;;;;;5025345;28;20235;-90
2023/02/12 08:19:50;;;;;;;32.23;28.47;;;6.90;92.10;;;;;;5033928;28;20201;-90
2023/02/12 08:22:16;;;;;;;31.33;27.97;;;7.00;92.40;;;;;;5032073;28;20197;-88
2023/02/12 08:24:42;;;;;;;31.50;28.10;;;7.00;91.30;;;;;;5017975;28;20215;-89
2023/02/12 08:27:07;;;;;;;30.83;27.57;;;7.00;91.70;;;;;;5009584;28;20198;-89
2023/02/12 08:29:33;;;;;;;31.17;26.90;;;7.10;91.80;;;;;;5015053;28;20646;-88
2023/02/12 08:32:01;;;;;;;30.33;27.20;;;7.10;91.50;;;;;;5030696;28;20553;-88
2023/02/12 08:34:34;;;;;;;28.47;25.47;;;7.20;91.70;;;;;;5032428;28;20203;-87
2023/02/12 08:37:00;;;;;;;29.27;25.87;;;7.20;91.50;;;;;;5031535;28;20177;-89
2023/02/12 08:39:28;;;;;;;29.77;26.53;;;7.20;91.00;;;;;;5033838;28;20247;-87
2023/02/12 08:41:58;;;;;;;29.93;26.83;;;7.30;91.60;;;;;;5033579;28;20182;-90
2023/02/12 08:44:24;;;;;;;28.57;25.67;;;7.40;91.70;;;;;;5022925;28;20205;-88
2023/02/12 08:46:51;;;;;;;31.77;27.83;;;7.50;90.60;;;;;;5030212;28;20216;-89
2023/02/12 08:49:20;;;;;;;30.97;26.87;;;7.50;90.70;;;;;;5035572;28;20204;-87
2023/02/12 08:51:48;;;;;;;29.27;26.27;;;7.60;90.70;;;;;;5038568;28;20267;-88
2023/02/12 08:54:17;;;;;;;29.10;25.00;;;7.70;90.20;;;;;;5032028;28;20232;-88
2023/02/12 08:56:45;;;;;;;30.97;25.33;;;7.70;89.60;;;;;;5030426;28;20280;-87
2023/02/12 08:59:13;;;;;;;27.37;24.50;;;7.80;89.60;;;;;;5036679;28;20574;-90
2023/02/12 09:01:42;;;;;;;29.73;26.03;;;7.90;89.60;;;;;;5032800;28;20173;-88
2023/02/12 09:04:17;;;;;;;30.30;27.10;;;7.90;89.80;;;;;;5017537;28;20566;-89
2023/02/12 09:06:43;;;;;;;26.73;24.03;;;8.00;89.20;;;;;;5033516;28;20305;-89
2023/02/12 09:09:09;;;;;;;26.83;23.60;;;8.20;89.10;;;;;;5036836;28;20208;-90
2023/02/12 09:11:34;;;;;;;24.07;21.50;;;8.30;88.40;;;;;;5038908;28;20208;-89
2023/02/12 09:14:03;;;;;;;25.43;22.83;;;8.40;87.90;;;;;;5039451;28;20197;-87
2023/02/12 09:16:30;;;;;;;23.63;21.30;;;8.40;88.10;;;;;;5038420;28;20615;-90
2023/02/12 09:18:56;;;;;;;26.73;22.93;;;8.50;88.20;;;;;;5039427;28;20185;-89
2023/02/12 09:21:23;;;;;;;25.17;22.53;;;8.40;88.10;;;;;;5038363;28;20443;-90
2023/02/12 09:23:49;;;;;;;26.13;23.47;;;8.50;88.30;;;;;;5038104;28;20193;-90
2023/02/12 09:26:19;;;;;;;27.73;24.30;;;8.50;88.00;;;;;;5034952;28;20671;-90
2023/02/12 09:28:46;;;;;;;27.30;23.43;;;8.60;87.70;;;;;;5043132;28;20191;-93
2023/02/12 09:31:14;;;;;;;25.60;22.67;;;8.70;87.60;;;;;;5033568;28;20578;-90
2023/02/12 09:33:41;;;;;;;26.43;23.13;;;8.80;86.80;;;;;;5034173;28;20205;-90
2023/02/12 09:36:09;;;;;;;23.17;20.67;;;8.90;86.90;;;;;;5033076;28;20262;-91
2023/02/12 09:38:35;;;;;;;23.40;20.93;;;9.00;85.30;;;;;;5033653;28;20664;-91
2023/02/12 09:41:19;;;;;;;25.63;21.13;;;9.10;85.00;;;;;;5031994;28;20181;-91
2023/02/12 09:44:08;;;;;;;26.97;24.17;;;9.10;84.80;;;;;;5021751;28;20228;-90
2023/02/12 09:47:04;;;;;;;25.60;22.83;;;9.20;84.30;;;;;;5021216;28;20410;-89
2023/02/12 09:49:50;;;;;;;25.40;22.70;;;9.40;83.40;;;;;;5012938;28;20227;-89
2023/02/12 09:52:20;;;;;;;27.33;23.90;;;9.40;82.40;;;;;;5018019;28;20198;-89
2023/02/12 09:54:48;;;;;;;25.03;22.53;;;9.40;81.90;;;;;;5019967;28;20213;-90
2023/02/12 09:57:30;;;;;;;25.97;23.23;;;9.30;81.90;;;;;;5018904;28;20878;-88
2023/02/12 10:00:01;;;;;;;26.30;22.73;;;9.40;82.40;;;;;;5014417;28;20173;-92
2023/02/12 10:02:27;;;;;;;26.03;23.33;;;9.30;82.10;;;;;;5016779;28;20659;-91
2023/02/12 10:04:54;;;;;;;27.70;23.83;;;9.40;82.20;;;;;;5009995;28;20208;-90
2023/02/12 10:07:33;;;;;;;27.43;24.00;;;9.40;82.70;;;;;;5012247;28;20181;-90
2023/02/12 10:10:22;;;;;;;27.10;24.30;;;9.40;81.80;;;;;;5023005;28;20281;-89
2023/02/12 10:12:56;;;;;;;28.17;24.77;;;9.40;81.90;;;;;;5031400;28;20181;-90
2023/02/12 10:15:25;;;;;;;26.90;24.17;;;9.40;82.40;;;;;;5031344;28;20220;-89
2023/02/12 10:18:19;;;;;;;30.10;24.73;;;9.50;82.20;;;;;;5044266;28;20204;-89
2023/02/12 10:20:56;;;;;;;27.30;24.33;;;9.50;80.90;;;;;;5036728;28;20173;-90
2023/02/12 10:23:42;;;;;;;26.53;23.37;;;9.50;80.90;;;;;;5029213;28;20185;-91
2023/02/12 10:26:34;;;;;;;26.23;23.67;;;9.50;81.20;;;;;;5030562;28;20193;-94
2023/02/12 10:29:19;;;;;;;28.23;23.80;;;9.50;81.10;;;;;;5027794;28;20162;-91
2023/02/12 10:31:51;;;;;;;25.83;23.13;;;9.60;80.90;;;;;;5020629;28;20185;-93
2023/02/12 10:34:37;;;;;;;25.93;23.33;;;9.60;80.70;;;;;;5030758;28;20284;-93
2023/02/12 10:37:04;;;;;;;25.20;22.57;;;9.60;81.40;;;;;;5035958;28;20179;-93
2023/02/12 10:39:43;;;;;;;24.00;21.43;;;9.60;81.90;;;;;;5041034;28;20185;-90
2023/02/12 10:42:17;;;;;;;23.10;20.63;;;9.70;80.00;;;;;;5015631;28;20193;-90
2023/02/12 10:44:42;;;;;;;22.37;20.07;;;9.80;79.70;;;;;;5022902;28;20570;-89
2023/02/12 10:47:22;;;;;;;20.67;18.60;;;9.80;80.00;;;;;;5032195;28;20189;-89
2023/02/12 10:49:58;;;;;;;20.43;17.97;;;9.80;79.90;;;;;;5021755;28;20196;-88
2023/02/12 10:52:46;;;;;;;23.43;19.60;;;9.80;79.60;;;;;;5022321;28;20556;-91
2023/02/12 10:55:27;;;;;;;17.57;14.90;;;9.70;81.90;;;;;;5024264;28;20224;-93
2023/02/12 10:57:53;;;;;;;19.63;14.63;;;9.70;79.80;;;;;;5031896;28;20185;-90
2023/02/12 11:00:30;;;;;;;13.33;11.97;;;9.80;79.90;;;;;;5032477;28;20189;-87
2023/02/12 11:03:03;;;;;;;11.97;10.83;;;9.70;81.10;;;;;;5015247;28;20666;-89
2023/02/12 11:05:30;;;;;;;12.77;10.40;;;9.70;81.50;;;;;;5016479;28;20290;-91
2023/02/12 11:07:56;;;;;;;10.67;9.63;;;9.80;79.90;;;;;;5014149;28;20186;-90
2023/02/12 11:10:36;;;;;;;11.23;8.63;;;9.80;81.40;;;;;;5027457;28;20196;-86
2023/02/12 11:13:02;;;;;;;9.33;8.47;;;10.00;79.40;;;;;;5032647;28;20681;-89
2023/02/12 11:15:44;;;;;;;9.70;8.73;;;10.10;78.10;;;;;;5032677;28;20284;-90
2023/02/12 11:18:24;;;;;;;10.80;9.77;;;10.10;78.90;;;;;;5030747;28;20191;-88
2023/02/12 11:20:51;;;;;;;10.90;9.90;;;10.10;78.70;;;;;;5016691;28;20185;-89
2023/02/12 11:23:26;;;;;;;10.30;9.30;;;10.20;78.40;;;;;;5024003;28;20473;-93
2023/02/12 11:26:18;;;;;;;12.00;10.83;;;10.30;77.90;;;;;;5026251;28;20675;-90
2023/02/12 11:28:56;;;;;;;11.93;10.83;;;10.30;77.90;;;;;;5014511;28;20231;-89
2023/02/12 11:31:27;;;;;;;11.03;9.93;;;10.30;77.30;;;;;;5014389;28;20254;-88
2023/02/12 11:34:11;;;;;;;9.70;8.77;;;10.40;76.60;;;;;;5023175;28;20638;-90
2023/02/12 11:36:57;;;;;;;9.80;8.90;;;10.60;75.40;;;;;;5032522;28;20198;-88
2023/02/12 11:39:32;;;;;;;10.90;9.53;;;10.60;75.30;;;;;;5037758;28;20207;-89
2023/02/12 11:42:14;;;;;;;10.07;9.17;;;10.40;76.50;;;;;;5035487;28;20603;-89
2023/02/12 11:44:52;;;;;;;9.77;8.97;;;10.50;77.00;;;;;;5035360;28;20185;-90
2023/02/12 11:47:24;;;;;;;9.60;8.20;;;10.90;75.50;;;;;;5035910;28;20605;-88
2023/02/12 11:50:07;;;;;;;9.73;8.67;;;11.70;70.90;;;;;;5035487;28;20612;-89
2023/02/12 11:52:36;;;;;;;9.13;8.33;;;12.30;67.70;;;;;;5035065;28;20231;-89
2023/02/12 11:55:23;;;;;;;11.40;9.43;;;12.80;66.10;;;;;;5028950;28;20387;-89
2023/02/12 11:57:52;;;;;;;9.40;8.40;;;13.10;63.20;;;;;;5027576;28;20610;-90
2023/02/12 12:00:27;;;;;;;9.93;8.33;;;13.00;62.90;;;;;;5035180;28;20212;-89
2023/02/12 12:02:59;;;;;;;8.53;7.83;;;12.70;64.20;;;;;;5037254;28;20183;-93
2023/02/12 12:05:33;;;;;;;9.60;8.70;;;12.60;64.50;;;;;;5054692;28;20192;-93
2023/02/12 12:08:04;;;;;;;9.47;8.57;;;12.70;64.70;;;;;;5056213;28;20196;-90
2023/02/12 12:10:47;;;;;;;10.67;9.70;;;12.70;64.30;;;;;;5054295;28;20157;-88
2023/02/12 12:13:22;;;;;;;10.70;9.57;;;12.40;65.60;;;;;;5035480;28;20216;-88
2023/02/12 12:21:53;;;;;;;12.53;11.43;;;12.70;64.60;;;;;;5037685;28;20182;-94
2023/02/12 12:24:33;;;;;;;12.03;10.93;;;13.00;62.70;;;;;;5044273;28;20188;-92
2023/02/12 12:28:01;;;;;;;11.97;10.87;;;13.30;62.30;;;;;;5044323;28;20218;-92
2023/02/12 12:30:06;;;;;;;13.23;12.03;;;13.50;61.80;;;;;;5046215;28;20670;-91
2023/02/12 12:32:35;;;;;;;14.20;12.80;;;13.50;61.30;;;;;;5052132;28;20194;-91
2023/02/12 12:35:01;;;;;;;13.07;11.80;;;13.60;61.30;;;;;;5049794;28;20249;-92
2023/02/12 12:37:46;;;;;;;15.60;14.20;;;13.70;60.70;;;;;;5043564;28;20178;-91
2023/02/12 12:40:51;;;;;;;15.37;13.97;;;13.70;60.20;;;;;;5043302;28;20181;-93
2023/02/12 12:43:43;;;;;;;14.83;13.43;;;13.90;59.70;;;;;;5011168;28;20202;-92
2023/02/12 12:46:16;;;;;;;12.70;11.57;;;14.00;59.30;;;;;;5026414;28;20333;-91
2023/02/12 12:49:42;;;;;;;13.43;12.07;;;14.20;58.30;;;;;;5022499;28;20536;-91
2023/02/12 12:52:26;;;;;;;15.27;13.77;;;14.60;57.80;;;;;;5009359;28;20259;-93
2023/02/12 12:54:55;;;;;;;15.27;13.87;;;14.60;57.20;;;;;;5026079;28;20234;-92
2023/02/12 12:57:35;;;;;;;14.27;12.97;;;14.40;57.50;;;;;;5024414;28;20264;-92
2023/02/12 13:00:01;;;;;;;14.00;12.70;;;14.20;57.90;;;;;;5022587;28;20172;-93
2023/02/12 13:02:56;;;;;;;14.27;12.97;;;14.20;58.60;;;;;;5038367;28;20268;-91
2023/02/12 13:06:06;;;;;;;14.03;12.70;;;14.10;58.60;;;;;;5042419;28;20237;-92
2023/02/12 13:08:32;;;;;;;13.90;12.70;;;14.50;58.00;;;;;;5041169;28;20184;-92
2023/02/12 13:11:21;;;;;;;13.90;12.60;;;14.80;56.60;;;;;;5041279;28;20246;-91